Time;durP1;ratioP1;P1;durP2;ratioP2;P2;SDS_P1;SDS_P2;PMS_P1;PMS_P2;Temp;Humidity;BMP_temperature;BMP_pressure;BME280_temperature;BME280_humidity;BME280_pressure;Samples;Min_cycle;Max_cycle;Signal;HPM_P1;HPM_P2
2022/08/26 00:01:42;;;;;;;;;2.75;2.75;;;;;23.75;56.43;101054.47;5138440;27;45348;-54
2022/08/26 00:04:08;;;;;;;;;3.00;3.00;;;;;23.75;56.63;101063.72;5102617;27;45387;-52
2022/08/26 00:06:34;;;;;;;;;4.00;4.00;;;;;23.72;56.28;101066.25;5119598;27;46413;-53
2022/08/26 00:08:59;;;;;;;;;3.75;3.75;;;;;23.50;56.96;101039.56;5138116;27;45205;-51
2022/08/26 00:11:25;;;;;;;;;7.00;3.75;;;;;23.53;57.17;101065.03;5138269;27;45305;-52
2022/08/26 00:13:50;;;;;;;;;4.75;4.75;;;;;23.38;56.61;101040.75;5119971;27;45770;-52
2022/08/26 00:16:16;;;;;;;;;9.00;6.00;;;;;23.66;56.79;101065.47;5137665;27;46110;-54
2022/08/26 00:18:41;;;;;;;;;4.25;4.00;;;;;23.58;56.31;101061.34;5138000;27;45736;-54
2022/08/26 00:21:07;;;;;;;;;3.50;2.75;;;;;23.68;56.61;101066.88;5137983;27;45391;-53
2022/08/26 00:23:33;;;;;;;;;6.00;4.50;;;;;23.69;56.64;101062.06;5137944;27;45322;-51
2022/08/26 00:25:59;;;;;;;;;6.50;5.50;;;;;23.76;56.36;101079.41;5119228;27;45465;-55
2022/08/26 00:28:24;;;;;;;;;8.50;6.00;;;;;23.35;56.86;101021.75;5137214;27;45466;-52
2022/08/26 00:30:50;;;;;;;;;5.50;5.00;;;;;23.62;56.85;101076.44;5136648;27;45379;-53
2022/08/26 00:33:16;;;;;;;;;4.00;4.00;;;;;23.62;56.41;101068.03;5137755;27;45543;-53
2022/08/26 00:35:41;;;;;;;;;8.20;6.20;;;;;23.53;56.98;101069.81;5118839;27;46745;-51
2022/08/26 00:38:07;;;;;;;;;5.75;4.25;;;;;23.48;57.23;101062.25;5119316;27;45441;-52
2022/08/26 00:40:39;;;;;;;;;4.50;4.50;;;;;23.47;57.24;101066.19;5137601;27;45325;-53
2022/08/26 00:43:05;;;;;;;;;4.60;4.00;;;;;23.47;57.44;101076.56;5136516;27;45403;-51
2022/08/26 00:45:36;;;;;;;;;5.00;5.00;;;;;23.39;57.72;101064.88;5118787;27;46116;-53
2022/08/26 00:48:02;;;;;;;;;5.60;5.60;;;;;23.35;58.07;101077.75;5137560;27;45236;-54
2022/08/26 00:50:34;;;;;;;;;4.75;3.75;;;;;23.32;57.97;101075.53;5119229;27;45748;-52
2022/08/26 00:53:00;;;;;;;;;5.60;4.00;;;;;23.31;57.73;101079.47;5136677;27;45388;-53
2022/08/26 00:55:32;;;;;;;;;2.40;2.40;;;;;23.37;57.51;101083.91;5115512;27;46692;-50
2022/08/26 00:57:58;;;;;;;;;5.00;5.00;;;;;23.37;57.90;101078.31;5116530;27;45554;-52
2022/08/26 01:00:24;;;;;;;;;5.75;4.50;;;;;23.24;57.93;101064.91;5116001;27;45381;-50
2022/08/26 01:02:50;;;;;;;;;5.20;5.20;;;;;23.30;58.10;101080.59;5098308;27;45610;-51
2022/08/26 01:05:17;;;;;;;;;6.00;4.50;;;;;23.28;57.93;101080.03;5081629;27;46502;-51
2022/08/26 01:07:42;;;;;;;;;6.40;6.40;;;;;23.22;57.39;101053.19;5115491;27;45287;-52
2022/08/26 01:10:10;;;;;;;;;7.00;6.00;;;;;23.38;57.97;101079.97;5116240;27;45301;-50
2022/08/26 01:12:42;;;;;;;;;6.60;4.40;;;;;23.31;57.64;101079.47;5081634;27;45351;-53
2022/08/26 01:15:09;;;;;;;;;6.80;6.20;;;;;23.26;58.13;101076.69;5097550;27;46856;-51
2022/08/26 01:17:36;;;;;;;;;6.60;5.60;;;;;23.33;58.25;101073.56;5098006;27;45309;-50
2022/08/26 01:20:06;;;;;;;;;6.00;5.80;;;;;23.29;58.11;101053.69;5081038;27;45520;-50
2022/08/26 01:22:56;;;;;;;;;5.00;5.00;;;;;23.39;57.45;101073.25;5099904;27;45495;-50
2022/08/26 01:25:23;;;;;;;;;7.60;7.40;;;;;23.33;58.31;101077.22;5103764;27;46579;-54
2022/08/26 01:27:49;;;;;;;;;6.00;6.00;;;;;23.19;58.23;101073.34;5084496;27;45446;-53
2022/08/26 01:30:15;;;;;;;;;5.75;4.50;;;;;23.24;58.14;101076.97;5118605;27;45183;-50
2022/08/26 01:32:40;;;;;;;;;6.50;5.25;;;;;23.20;58.31;101066.66;5084725;27;45366;-49
2022/08/26 01:35:06;;;;;;;;;6.00;6.00;;;;;23.24;58.19;101074.16;5101079;27;46290;-55
2022/08/26 01:37:33;;;;;;;;;6.60;6.60;;;;;23.15;58.24;101067.50;5118358;27;45341;-51
2022/08/26 01:39:59;;;;;;;;;5.60;5.60;;;;;23.20;58.29;101073.06;5101442;27;45427;-50
2022/08/26 01:42:25;;;;;;;;;7.00;7.00;;;;;23.18;58.49;101074.47;5120122;27;45462;-50
2022/08/26 01:44:54;;;;;;;;;9.40;8.40;;;;;23.21;57.99;101066.34;5101127;27;45415;-52
2022/08/26 01:47:20;;;;;;;;;5.60;5.00;;;;;23.17;58.18;101065.25;5084462;27;45393;-56
2022/08/26 01:49:48;;;;;;;;;6.50;6.50;;;;;22.91;58.49;101031.84;5101168;27;45383;-50
2022/08/26 01:52:15;;;;;;;;;8.20;8.20;;;;;22.98;58.24;101037.94;5101361;27;45583;-54
2022/08/26 01:54:40;;;;;;;;;8.20;7.60;;;;;23.14;58.03;101063.88;5084225;27;46520;-53
2022/08/26 01:57:06;;;;;;;;;6.50;5.00;;;;;23.05;58.27;101062.78;5115140;27;45401;-55
2022/08/26 01:59:32;;;;;;;;;6.40;6.20;;;;;23.19;57.89;101079.78;5104594;27;45326;-53
2022/08/26 02:01:57;;;;;;;;;8.00;8.00;;;;;23.16;58.55;101083.19;5121851;27;45387;-51
2022/08/26 02:04:33;;;;;;;;;9.25;8.00;;;;;23.05;58.86;101074.00;5130580;27;45548;-53
2022/08/26 02:07:02;;;;;;;;;8.20;7.60;;;;;23.12;58.50;101091.31;5090096;27;45357;-53
2022/08/26 02:09:27;;;;;;;;;8.60;8.60;;;;;23.09;58.94;101094.69;5099534;27;45369;-54
2022/08/26 02:11:53;;;;;;;;;9.75;7.75;;;;;23.07;58.92;101085.75;5119533;27;45180;-51
2022/08/26 02:14:24;;;;;;;;;15.00;10.25;;;;;23.11;58.36;101089.63;5118882;27;45567;-52
2022/08/26 02:16:50;;;;;;;;;8.40;7.80;;;;;23.11;58.43;101089.63;5083801;27;45378;-51
2022/08/26 02:19:19;;;;;;;;;9.40;8.80;;;;;23.11;58.74;101097.22;5083510;27;45355;-53
2022/08/26 02:21:46;;;;;;;;;8.00;8.00;;;;;23.02;59.00;101094.19;5119180;27;45257;-52
2022/08/26 02:24:13;;;;;;;;;15.60;14.60;;;;;22.98;58.90;101091.13;5083388;27;45521;-53
2022/08/26 02:26:39;;;;;;;;;10.00;10.00;;;;;22.95;58.71;101090.84;5100567;27;45390;-51
2022/08/26 02:29:08;;;;;;;;;12.75;12.00;;;;;22.93;58.55;101085.53;5101021;27;45359;-52
2022/08/26 02:31:33;;;;;;;;;15.00;12.60;;;;;22.75;59.62;101087.03;5100689;27;45602;-52
2022/08/26 02:34:09;;;;;;;;;9.75;8.00;;;;;22.69;59.66;101094.59;5099411;27;45454;-52
2022/08/26 02:36:35;;;;;;;;;11.00;11.00;;;;;22.65;59.97;101087.06;5118639;27;45367;-51
2022/08/26 02:39:00;;;;;;;;;10.75;9.75;;;;;22.65;59.87;101093.50;5118612;27;45450;-53
2022/08/26 02:41:27;;;;;;;;;12.75;11.50;;;;;22.72;59.86;101091.22;5118939;27;45302;-52
2022/08/26 02:43:52;;;;;;;;;11.40;11.00;;;;;22.70;59.86;101089.84;5119000;27;46218;-50
2022/08/26 02:46:18;;;;;;;;;13.75;10.50;;;;;22.72;59.92;101088.44;5118894;27;45394;-50
2022/08/26 02:48:44;;;;;;;;;12.80;12.00;;;;;22.71;59.78;101088.72;5119058;27;45360;-50
2022/08/26 02:51:10;;;;;;;;;14.25;13.00;;;;;22.67;60.18;101099.63;5119113;27;45312;-53
2022/08/26 02:53:35;;;;;;;;;11.60;10.00;;;;;22.66;59.90;101097.13;5118686;27;46021;-51
2022/08/26 02:56:02;;;;;;;;;14.25;13.25;;;;;22.71;60.34;101097.09;5129013;27;45235;-50
2022/08/26 02:58:28;;;;;;;;;13.00;12.20;;;;;22.57;59.70;101069.75;5139213;27;45306;-49
2022/08/26 03:00:53;;;;;;;;;11.50;11.50;;;;;22.54;60.19;101072.28;5139179;27;45492;-51
2022/08/26 03:03:19;;;;;;;;;14.50;10.25;;;;;22.63;59.93;101101.34;5139750;27;46284;-50
2022/08/26 03:05:45;;;;;;;;;13.20;11.60;;;;;22.58;60.08;101088.19;5138956;27;45323;-53
2022/08/26 03:08:10;;;;;;;;;16.25;14.25;;;;;22.56;60.51;101087.66;5139617;27;45267;-54
2022/08/26 03:10:37;;;;;;;;;13.25;12.00;;;;;22.58;60.07;101087.38;5139386;27;45281;-50
2022/08/26 03:13:02;;;;;;;;;12.60;12.40;;;;;22.64;60.32;101093.78;5120819;27;46443;-53
2022/08/26 03:15:28;;;;;;;;;11.00;9.50;;;;;22.59;60.03;101083.44;5139121;27;45393;-54
2022/08/26 03:17:53;;;;;;;;;14.25;12.50;;;;;22.63;60.22;101097.69;5138972;27;45289;-51
2022/08/26 03:20:19;;;;;;;;;14.50;11.75;;;;;22.66;60.30;101092.38;5139647;27;45534;-53
2022/08/26 03:22:44;;;;;;;;;13.50;11.25;;;;;22.63;60.05;101090.16;5138454;27;45469;-50
2022/08/26 03:25:11;;;;;;;;;14.75;14.25;;;;;22.61;59.90;101086.78;5138569;27;45297;-50
2022/08/26 03:27:37;;;;;;;;;13.80;13.80;;;;;22.59;60.04;101083.44;5137401;27;45300;-51
2022/08/26 03:32:46;;;;;;;;;15.20;11.60;;;;;22.60;60.25;101088.78;5137022;27;45412;-51
2022/08/26 03:35:12;;;;;;;;;17.75;14.25;;;;;22.59;60.52;101087.09;5138555;27;45286;-53
2022/08/26 03:37:37;;;;;;;;;17.75;15.00;;;;;22.39;60.21;101057.19;5138580;27;45327;-51
2022/08/26 03:40:04;;;;;;;;;14.50;14.50;;;;;22.28;60.40;101041.56;5137635;27;46087;-53
2022/08/26 03:42:29;;;;;;;;;16.40;12.20;;;;;22.51;60.93;101096.06;5136699;27;46848;-52
2022/08/26 03:44:55;;;;;;;;;14.00;11.50;;;;;22.36;61.13;101085.72;5137987;27;45336;-51
2022/08/26 03:47:21;;;;;;;;;17.40;16.40;;;;;22.40;61.11;101084.03;5138548;27;45738;-52
2022/08/26 03:49:47;;;;;;;;;16.50;13.75;;;;;22.47;60.95;101086.53;5119790;27;45471;-54
2022/08/26 03:52:12;;;;;;;;;17.25;14.50;;;;;22.25;60.81;101037.38;5138001;27;45500;-51
2022/08/26 03:54:39;;;;;;;;;16.00;15.25;;;;;22.46;60.60;101082.91;5119808;27;45376;-50
2022/08/26 03:57:04;;;;;;;;;14.20;12.80;;;;;22.53;60.65;101087.38;5119022;27;45751;-53
2022/08/26 03:59:30;;;;;;;;;9.50;8.00;;;;;22.53;60.83;101085.44;5117746;27;45695;-51
2022/08/26 04:01:56;;;;;;;;;15.50;15.00;;;;;22.50;60.47;101088.75;5117195;27;45744;-53
2022/08/26 04:04:22;;;;;;;;;15.80;13.40;;;;;22.51;61.04;101093.25;5117556;27;45740;-50
2022/08/26 04:06:48;;;;;;;;;15.00;14.25;;;;;22.46;61.03;101079.25;5117199;27;45672;-51
2022/08/26 04:09:16;;;;;;;;;18.75;15.50;;;;;22.48;61.29;101093.81;5099071;27;45554;-51
2022/08/26 04:11:43;;;;;;;;;17.00;15.80;;;;;22.51;60.97;101096.06;5099176;27;45901;-52
2022/08/26 04:14:12;;;;;;;;;14.60;12.60;;;;;22.54;61.03;101089.06;5098358;27;45250;-53
2022/08/26 04:16:37;;;;;;;;;16.40;16.40;;;;;22.47;60.98;101086.53;5117430;27;45375;-52
2022/08/26 04:19:03;;;;;;;;;18.50;18.00;;;;;22.37;61.32;101073.44;5117212;27;45643;-55
2022/08/26 04:21:28;;;;;;;;;15.75;15.75;;;;;22.44;61.19;101084.31;5117049;27;45778;-55
2022/08/26 04:23:54;;;;;;;;;18.00;15.00;;;;;22.47;61.15;101078.16;5117265;27;45623;-54
2022/08/26 04:26:20;;;;;;;;;15.25;15.25;;;;;22.52;60.94;101092.13;5117512;27;45505;-50
2022/08/26 04:28:49;;;;;;;;;17.00;17.00;;;;;22.52;61.20;101097.72;5117629;27;45451;-53
2022/08/26 04:31:16;;;;;;;;;17.00;16.00;;;;;22.52;60.99;101094.94;5117042;27;45366;-52
2022/08/26 04:33:42;;;;;;;;;20.80;17.00;;;;;22.42;61.23;101089.34;5098730;27;45249;-52
2022/08/26 04:36:08;;;;;;;;;15.80;14.40;;;;;22.33;61.40;101081.56;5115832;27;45261;-50
2022/08/26 04:38:33;;;;;;;;;17.00;16.50;;;;;22.37;61.54;101101.41;5117526;27;45270;-54
2022/08/26 04:40:59;;;;;;;;;16.00;13.75;;;;;21.72;61.84;101002.28;5098892;27;46823;-51
2022/08/26 04:43:27;;;;;;;;;21.50;16.75;;;;;22.27;61.80;101105.06;5116628;27;45411;-55
2022/08/26 04:45:52;;;;;;;;;19.80;18.20;;;;;22.27;61.91;101104.19;5117292;27;45424;-54
2022/08/26 04:48:18;;;;;;;;;18.50;15.50;;;;;22.26;61.74;101091.34;5098792;27;45341;-53
2022/08/26 04:50:43;;;;;;;;;18.00;18.00;;;;;22.34;61.70;101104.75;5117128;27;46343;-55
2022/08/26 04:53:09;;;;;;;;;15.75;15.00;;;;;22.17;62.01;101082.69;5090871;27;45443;-52
2022/08/26 04:55:34;;;;;;;;;21.25;19.00;;;;;22.20;62.15;101104.50;5137407;27;45321;-52
2022/08/26 04:57:59;;;;;;;;;20.25;18.25;;;;;22.28;61.56;101111.47;5136996;27;45124;-53
2022/08/26 05:00:25;;;;;;;;;19.50;17.75;;;;;22.23;62.23;101105.88;5137301;27;45362;-54
2022/08/26 05:02:50;;;;;;;;;22.00;18.50;;;;;22.18;62.31;101109.53;5137720;27;45191;-52
2022/08/26 05:05:16;;;;;;;;;18.25;17.75;;;;;22.10;62.08;101080.22;5137993;27;45272;-50
2022/08/26 05:07:42;;;;;;;;;15.00;12.75;;;;;22.17;62.14;101111.50;5137663;27;45172;-50
2022/08/26 05:10:08;;;;;;;;;23.75;19.50;;;;;22.03;62.57;101088.00;5137385;27;45572;-50
2022/08/26 05:12:33;;;;;;;;;20.60;18.00;;;;;22.12;62.51;101117.09;5137251;27;45431;-54
2022/08/26 05:14:59;;;;;;;;;20.25;17.25;;;;;22.19;62.39;101117.63;5101700;27;45555;-50
2022/08/26 05:17:26;;;;;;;;;21.25;20.00;;;;;22.18;62.26;101115.09;5137353;27;45392;-51
2022/08/26 05:19:51;;;;;;;;;17.40;16.40;;;;;22.12;62.00;101105.91;5118747;27;45798;-53
2022/08/26 05:22:17;;;;;;;;;21.50;17.00;;;;;22.01;62.46;101104.22;5118650;27;45395;-52
2022/08/26 05:24:42;;;;;;;;;24.00;21.75;;;;;22.07;62.44;101120.72;5136869;27;45290;-52
2022/08/26 05:27:08;;;;;;;;;21.25;17.25;;;;;22.19;62.05;101119.56;5135920;27;45403;-51
2022/08/26 05:29:33;;;;;;;;;17.20;17.20;;;;;21.98;62.20;101108.44;5101141;27;45883;-53
2022/08/26 05:32:00;;;;;;;;;26.00;21.25;;;;;22.23;61.97;101136.63;5136939;27;45394;-51
2022/08/26 05:34:26;;;;;;;;;19.40;17.40;;;;;22.16;62.18;101136.94;5136751;27;45301;-50
2022/08/26 05:36:51;;;;;;;;;19.50;17.00;;;;;22.05;62.21;101119.34;5118450;27;45337;-50
2022/08/26 05:39:17;;;;;;;;;19.25;18.25;;;;;22.23;62.10;101145.00;5136720;27;45471;-50
2022/08/26 05:41:42;;;;;;;;;17.00;15.50;;;;;22.17;61.96;101133.00;5136931;27;45343;-51
2022/08/26 05:44:09;;;;;;;;;19.25;17.75;;;;;22.26;61.83;101148.09;5118309;27;45367;-54
2022/08/26 05:46:35;;;;;;;;;23.20;19.40;;;;;22.02;61.88;101105.91;5135701;27;45431;-54
2022/08/26 05:49:01;;;;;;;;;23.20;19.40;;;;;22.18;61.99;101138.31;5117937;27;46763;-52
2022/08/26 05:51:26;;;;;;;;;19.75;19.75;;;;;22.03;62.24;101128.00;5118206;27;45374;-51
2022/08/26 05:53:52;;;;;;;;;22.50;20.25;;;;;22.23;62.09;101157.03;5136829;27;45403;-55
2022/08/26 05:56:23;;;;;;;;;21.75;19.00;;;;;22.19;62.08;101142.78;5106945;27;45288;-53
2022/08/26 05:58:49;;;;;;;;;21.60;17.80;;;;;22.27;62.01;101146.97;5098025;27;45905;-54
2022/08/26 06:01:16;;;;;;;;;21.75;18.75;;;;;22.32;61.91;101157.31;5098075;27;46022;-53
2022/08/26 06:03:43;;;;;;;;;15.00;14.40;;;;;22.22;62.03;101152.56;5097540;27;45396;-52
2022/08/26 06:06:17;;;;;;;;;23.00;22.80;;;;;22.18;62.01;101154.25;5081066;27;45539;-51
2022/08/26 06:08:43;;;;;;;;;22.20;17.00;;;;;22.26;62.23;101156.50;5082687;27;46738;-54
2022/08/26 06:11:09;;;;;;;;;23.25;21.00;;;;;22.15;61.86;101130.47;5119415;27;45388;-52
2022/08/26 06:13:35;;;;;;;;;18.80;15.60;;;;;22.24;61.84;101153.13;5101294;27;45330;-55
2022/08/26 06:16:06;;;;;;;;;19.00;16.25;;;;;22.14;61.99;101140.00;5101473;27;45224;-51
2022/08/26 06:18:35;;;;;;;;;20.40;19.00;;;;;21.92;62.54;101131.91;5083830;27;47665;-50
2022/08/26 06:21:09;;;;;;;;;18.60;18.40;;;;;22.12;62.46;101161.81;5100921;27;45368;-56
2022/08/26 06:26:19;;;;;;;;;25.60;18.20;;;;;22.07;62.33;101161.81;5119814;27;45401;-51
2022/08/26 06:28:44;;;;;;;;;20.00;15.75;;;;;21.93;62.48;101145.59;5117885;27;47128;-55
2022/08/26 06:31:10;;;;;;;;;23.25;20.00;;;;;22.07;62.20;101153.41;5100902;27;45583;-51
2022/08/26 06:33:35;;;;;;;;;16.50;15.75;;;;;22.06;62.04;101155.38;5118130;27;45171;-49
2022/08/26 06:36:02;;;;;;;;;17.75;15.50;;;;;22.03;62.45;101158.72;5119180;27;45499;-50
2022/08/26 06:38:28;;;;;;;;;18.00;17.60;;;;;22.00;62.28;101159.31;5119171;27;45748;-50
2022/08/26 06:40:56;;;;;;;;;21.75;16.25;;;;;22.06;61.85;101158.19;5119580;27;45276;-51
2022/08/26 06:43:23;;;;;;;;;18.40;16.60;;;;;22.04;61.95;101154.81;5119592;27;45371;-51
2022/08/26 06:45:49;;;;;;;;;17.60;16.80;;;;;22.01;61.82;101155.38;5119676;27;45597;-53
2022/08/26 06:48:16;;;;;;;;;19.25;15.75;;;;;22.05;61.62;101162.06;5118856;27;45324;-50
2022/08/26 06:50:42;;;;;;;;;16.00;14.60;;;;;21.50;61.52;101094.72;5119329;27;45195;-54
2022/08/26 06:53:08;;;;;;;;;15.75;13.75;;;;;22.00;61.22;101170.47;5118924;27;45332;-52
2022/08/26 06:55:44;;;;;;;;;15.20;15.00;;;;;21.96;61.65;101160.13;5101180;27;45172;-50
2022/08/26 06:58:10;;;;;;;;;20.60;18.60;;;;;22.02;61.43;101168.22;5134635;27;46351;-51
2022/08/26 07:00:37;;;;;;;;;20.00;17.50;;;;;22.11;61.02;101170.47;5140024;27;45422;-52
2022/08/26 07:03:03;;;;;;;;;12.40;10.80;;;;;22.03;61.08;101153.13;5111429;27;45526;-50
2022/08/26 07:05:29;;;;;;;;;15.80;14.80;;;;;22.18;60.95;101169.06;5076004;27;45327;-53
2022/08/26 07:07:56;;;;;;;;;16.75;15.75;;;;;22.19;60.46;101172.69;5133714;27;46160;-54
2022/08/26 07:10:22;;;;;;;;;21.80;18.60;;;;;22.32;60.15;101160.09;5139535;27;45337;-50
2022/08/26 07:12:48;;;;;;;;;18.60;17.80;;;;;22.23;60.07;101133.81;5139723;27;45238;-55
2022/08/26 07:15:14;;;;;;;;;19.25;17.25;;;;;22.44;60.07;101176.59;5139456;27;45353;-51
2022/08/26 07:17:39;;;;;;;;;16.25;16.25;;;;;22.51;59.84;101160.38;5117366;27;45656;-55
2022/08/26 07:20:07;;;;;;;;;16.25;16.25;;;;;22.39;59.39;101129.03;5133774;27;45423;-53
2022/08/26 07:22:32;;;;;;;;;24.20;17.60;;;;;22.59;59.23;101159.81;5120345;27;45320;-50
2022/08/26 07:24:58;;;;;;;;;13.75;11.75;;;;;22.65;59.30;101163.44;5139684;27;45570;-50
2022/08/26 07:27:23;;;;;;;;;14.00;13.25;;;;;22.32;59.14;101093.84;5139058;27;46343;-55
2022/08/26 07:29:49;;;;;;;;;16.00;13.75;;;;;22.79;58.71;101163.66;5139463;27;45364;-52
2022/08/26 07:32:15;;;;;;;;;13.50;13.25;;;;;22.88;58.47;101164.75;5117816;27;45312;-51
2022/08/26 07:34:41;;;;;;;;;12.60;12.00;;;;;22.86;58.41;101160.56;5094979;27;45424;-49
2022/08/26 07:37:07;;;;;;;;;15.00;14.00;;;;;22.89;58.08;101173.97;5102458;27;46380;-54
2022/08/26 07:39:33;;;;;;;;;19.00;18.60;;;;;22.77;57.84;101154.72;5120826;27;45790;-55
2022/08/26 07:42:00;;;;;;;;;13.50;12.50;;;;;22.85;57.82;101168.09;5116704;27;45309;-51
2022/08/26 07:44:26;;;;;;;;;16.60;14.60;;;;;22.92;57.69;101176.22;5116179;27;45626;-50
2022/08/26 07:46:52;;;;;;;;;13.00;13.00;;;;;22.91;57.65;101168.09;5117851;27;45476;-54
2022/08/26 07:49:18;;;;;;;;;17.60;15.20;;;;;22.75;57.53;101143.81;5117585;27;45336;-51
2022/08/26 07:51:43;;;;;;;;;14.50;14.00;;;;;22.96;57.29;101176.47;5121382;27;45448;-55
2022/08/26 07:54:09;;;;;;;;;15.25;13.75;;;;;23.02;56.89;101172.53;5138731;27;45517;-51
2022/08/26 07:56:34;;;;;;;;;17.25;14.00;;;;;23.02;57.26;101169.75;5138155;27;46244;-52
2022/08/26 07:59:00;;;;;;;;;15.50;14.00;;;;;23.04;57.29;101169.47;5138430;27;45393;-55
2022/08/26 08:01:30;;;;;;;;;16.75;14.50;;;;;23.07;56.64;101178.13;5102498;27;45329;-54
2022/08/26 08:03:56;;;;;;;;;17.40;15.40;;;;;23.02;57.07;101169.75;5082529;27;45421;-54
2022/08/26 08:06:23;;;;;;;;;14.00;14.00;;;;;23.08;57.10;101174.19;5096008;27;46157;-54
2022/08/26 08:08:50;;;;;;;;;16.40;13.00;;;;;23.19;56.16;101174.13;5117302;27;45408;-51
2022/08/26 08:11:16;;;;;;;;;11.60;11.40;;;;;23.09;56.44;101150.66;5117476;27;45402;-55
2022/08/26 08:13:41;;;;;;;;;15.25;13.75;;;;;23.28;56.15;101169.63;5099061;27;45335;-56
2022/08/26 08:16:07;;;;;;;;;15.00;13.00;;;;;23.29;56.19;101165.69;5115673;27;46287;-51
2022/08/26 08:18:32;;;;;;;;;15.80;14.40;;;;;23.37;55.97;101169.91;5135583;27;45986;-53
2022/08/26 08:21:02;;;;;;;;;15.75;15.75;;;;;23.22;56.07;101153.97;5138269;27;45897;-55
2022/08/26 08:23:27;;;;;;;;;19.80;16.40;;;;;23.23;56.08;101175.25;5137699;27;45647;-51
2022/08/26 08:26:19;;;;;;;;;15.50;14.75;;;;;23.24;56.45;101174.97;5138059;27;45780;-51
2022/08/26 08:28:45;;;;;;;;;16.60;15.60;;;;;23.18;56.16;101167.72;5111086;27;45260;-53
2022/08/26 08:31:20;;;;;;;;;15.80;14.40;;;;;23.17;56.83;101180.03;5133446;27;45258;-53
2022/08/26 08:33:46;;;;;;;;;15.00;15.00;;;;;23.15;56.22;101171.06;5138169;27;45421;-51
2022/08/26 08:36:13;;;;;;;;;17.50;15.25;;;;;23.18;55.92;101167.72;5138152;27;45969;-54
2022/08/26 08:38:39;;;;;;;;;18.40;17.00;;;;;23.18;56.45;101166.88;5137786;27;45375;-50
2022/08/26 08:41:04;;;;;;;;;18.75;17.25;;;;;23.13;55.64;101139.75;5135647;27;45393;-56
2022/08/26 08:43:37;;;;;;;;;12.50;10.00;;;;;23.32;56.20;101176.34;5100476;27;45667;-53
2022/08/26 08:46:06;;;;;;;;;18.20;14.60;;;;;23.29;56.52;101165.69;5115602;27;45421;-54
2022/08/26 08:48:37;;;;;;;;;15.60;15.60;;;;;23.39;55.82;101174.09;5102217;27;45297;-55
2022/08/26 08:51:39;;;;;;;;;15.00;14.00;;;;;23.53;55.65;101167.84;5101951;27;45325;-55
2022/08/26 08:54:06;;;;;;;;;14.40;14.40;;;;;23.47;55.67;101150.22;5123007;27;45406;-52
2022/08/26 08:56:36;;;;;;;;;14.00;12.40;;;;;23.63;54.75;101164.13;5132831;27;46042;-52
2022/08/26 08:59:16;;;;;;;;;13.00;10.40;;;;;23.75;54.84;101167.38;5098150;27;45317;-49
2022/08/26 09:01:59;;;;;;;;;12.40;12.40;;;;;23.83;54.24;101166.78;5098916;27;45353;-54
2022/08/26 09:04:53;;;;;;;;;9.20;9.00;;;;;23.91;53.68;101170.91;5118598;27;45306;-55
2022/08/26 09:07:27;;;;;;;;;10.80;10.20;;;;;24.01;53.13;101160.75;5137776;27;46794;-52
2022/08/26 09:10:35;;;;;;;;;10.00;9.60;;;;;24.11;53.13;101160.69;5119377;27;45644;-54
2022/08/26 09:13:05;;;;;;;;;8.00;8.00;;;;;24.12;52.62;101156.75;5137500;27;45389;-56
2022/08/26 09:15:52;;;;;;;;;13.00;11.60;;;;;24.14;52.53;101148.91;5138121;27;45358;-53
2022/08/26 09:18:27;;;;;;;;;9.20;8.80;;;;;24.36;52.60;101164.38;5119547;27;45985;-51
2022/08/26 09:21:02;;;;;;;;;13.40;11.60;;;;;24.36;52.53;101167.19;5137773;27;45248;-52
2022/08/26 09:23:27;;;;;;;;;9.00;8.00;;;;;24.31;52.61;101168.09;5119031;27;45229;-52
2022/08/26 09:25:55;;;;;;;;;9.25;8.50;;;;;24.41;52.37;101157.88;5130063;27;45435;-53
2022/08/26 09:28:22;;;;;;;;;8.60;8.60;;;;;24.35;52.35;101129.06;5065193;27;45470;-52
2022/08/26 09:31:21;;;;;;;;;10.00;10.00;;;;;24.49;51.80;101158.06;5132045;27;45439;-54
2022/08/26 09:33:46;;;;;;;;;9.40;9.20;;;;;24.39;51.82;101132.97;5130149;27;45324;-53
2022/08/26 09:36:15;;;;;;;;;8.50;8.50;;;;;24.59;51.71;101157.13;5137547;27;45371;-53
2022/08/26 09:38:40;;;;;;;;;11.40;7.80;;;;;24.48;51.52;101133.13;5137061;27;45583;-51
2022/08/26 09:41:19;;;;;;;;;11.50;10.00;;;;;24.68;51.51;101153.66;5134530;27;45445;-51
2022/08/26 09:44:03;;;;;;;;;10.00;8.60;;;;;24.67;51.90;101149.19;5122853;27;45385;-53
2022/08/26 09:46:28;;;;;;;;;9.80;9.80;;;;;24.70;51.79;101152.22;5123359;27;45395;-54
2022/08/26 09:48:53;;;;;;;;;10.50;10.50;;;;;24.49;51.74;101130.03;5121704;27;45659;-50
2022/08/26 09:51:21;;;;;;;;;11.00;10.50;;;;;24.62;51.87;101150.94;5140717;27;45406;-50
2022/08/26 09:54:09;;;;;;;;;8.60;8.60;;;;;24.59;52.14;101142.28;5117435;27;45683;-55
2022/08/26 09:56:36;;;;;;;;;11.00;11.00;;;;;24.50;52.05;101156.13;5124129;27;45273;-51
2022/08/26 09:59:02;;;;;;;;;9.60;9.60;;;;;24.59;52.21;101156.31;5121855;27;46826;-54
2022/08/26 10:01:35;;;;;;;;;11.50;10.50;;;;;24.71;51.97;101153.91;5049409;27;45521;-53
2022/08/26 10:04:19;;;;;;;;;10.20;8.40;;;;;24.76;51.17;101156.66;5111695;27;45368;-53
2022/08/26 10:06:55;;;;;;;;;11.20;9.60;;;;;24.85;51.63;101159.69;5086220;27;45327;-52
2022/08/26 10:09:21;;;;;;;;;6.00;5.40;;;;;24.84;51.23;101152.41;5101074;27;45959;-52
2022/08/26 10:11:52;;;;;;;;;10.00;9.00;;;;;24.80;50.82;101162.53;5083833;27;45445;-54
2022/08/26 10:14:31;;;;;;;;;10.80;9.60;;;;;24.67;51.03;101150.03;5118610;27;45379;-52
2022/08/26 10:17:05;;;;;;;;;10.40;8.80;;;;;24.66;50.76;101151.19;5102914;27;45358;-50
2022/08/26 10:19:47;;;;;;;;;8.40;7.80;;;;;24.69;51.04;101149.72;5113637;27;47056;-50
2022/08/26 10:22:24;;;;;;;;;10.00;10.00;;;;;24.70;50.21;101126.97;5064295;27;45280;-55
2022/08/26 10:24:53;;;;;;;;;10.60;9.60;;;;;24.94;50.15;101140.22;5098496;27;45230;-52
2022/08/26 10:27:36;;;;;;;;;8.40;8.40;;;;;24.83;50.12;101119.00;5080800;27;45369;-53
2022/08/26 10:30:09;;;;;;;;;11.20;11.20;;;;;24.78;50.03;101136.72;5097763;27;45849;-55
2022/08/26 10:32:44;;;;;;;;;9.60;9.60;;;;;24.73;49.34;101134.81;5098986;27;45669;-50
2022/08/26 10:35:11;;;;;;;;;11.60;11.60;;;;;24.38;49.55;101086.38;5119184;27;45224;-52
2022/08/26 10:37:38;;;;;;;;;11.00;11.00;;;;;24.53;50.18;101107.81;5099093;27;45521;-52
2022/08/26 10:40:11;;;;;;;;;11.20;10.00;;;;;24.69;49.73;101141.31;5118320;27;46752;-52
2022/08/26 10:42:43;;;;;;;;;2.40;1.60;;;;;24.74;49.58;101142.09;5075730;27;45815;-54
2022/08/26 10:45:13;;;;;;;;;9.40;8.40;;;;;24.79;49.38;101146.81;5080800;27;45400;-54
2022/08/26 10:47:47;;;;;;;;;8.80;8.80;;;;;24.86;49.07;101138.88;5058993;28;45428;-53
2022/08/26 10:50:13;;;;;;;;;8.00;7.20;;;;;24.59;48.82;101060.91;5043696;28;45729;-51
2022/08/26 10:52:45;;;;;;;;;8.50;7.50;;;;;25.22;48.46;101136.72;5076078;28;45443;-53
2022/08/26 10:55:32;;;;;;;;;11.80;9.80;;;;;25.27;48.51;101131.91;5076796;28;45409;-54
2022/08/26 10:58:35;;;;;;;;;8.80;8.00;;;;;25.35;48.33;101132.34;5040309;27;46676;-52
2022/08/26 11:01:51;;;;;;;;;8.60;8.00;;;;;25.33;48.06;101135.47;5072703;27;45805;-56
2022/08/26 11:04:25;;;;;;;;;13.00;9.80;;;;;25.18;47.56;101133.69;5060749;28;45604;-52
2022/08/26 11:07:31;;;;;;;;;8.00;7.00;;;;;25.13;48.44;101142.22;5076622;27;46026;-53
2022/08/26 11:10:01;;;;;;;;;6.00;6.00;;;;;25.07;47.94;101133.00;5093759;27;45465;-51
2022/08/26 11:12:35;;;;;;;;;6.40;6.40;;;;;24.86;47.65;101108.00;5074200;27;46966;-51
2022/08/26 11:15:02;;;;;;;;;5.00;5.00;;;;;25.01;47.85;101125.78;5093369;27;45743;-53
2022/08/26 11:17:43;;;;;;;;;6.20;6.20;;;;;25.01;48.28;101097.72;5051963;28;45487;-52
2022/08/26 11:20:10;;;;;;;;;7.00;6.40;;;;;25.33;47.74;101118.59;5083371;27;45750;-54
2022/08/26 11:22:37;;;;;;;;;9.00;9.00;;;;;25.49;47.02;101109.97;5093413;27;46941;-54
2022/08/26 11:25:07;;;;;;;;;6.00;6.00;;;;;25.68;47.09;101115.59;5057923;27;45413;-52
2022/08/26 11:27:36;;;;;;;;;7.60;7.60;;;;;25.89;46.69;101112.44;5074953;27;45357;-52